sensor_id;sensor_type;location;lat;lon;timestamp;pressure;altitude;pressure_sealevel;temperature;humidity
15750;BME280;7976;52.526;13.326;2022-12-07T00:01:44;100866.63;;;4.05;97.25
15750;BME280;7976;52.526;13.326;2022-12-07T00:04:13;100863.19;;;4.02;97.10
15750;BME280;7976;52.526;13.326;2022-12-07T00:06:44;100864.94;;;4.00;96.92
15750;BME280;7976;52.526;13.326;2022-12-07T00:09:14;100863.19;;;3.99;97.04
15750;BME280;7976;52.526;13.326;2022-12-07T00:11:42;100853.72;;;3.98;96.82
15750;BME280;7976;52.526;13.326;2022-12-07T00:14:13;100855.44;;;3.97;96.72
15750;BME280;7976;52.526;13.326;2022-12-07T00:16:41;100858.03;;;3.97;96.47
15750;BME280;7976;52.526;13.326;2022-12-07T00:19:11;100857.19;;;3.94;96.68
15750;BME280;7976;52.526;13.326;2022-12-07T00:21:38;100845.13;;;3.94;96.27
15750;BME280;7976;52.526;13.326;2022-12-07T00:24:07;100847.75;;;3.91;96.14
15750;BME280;7976;52.526;13.326;2022-12-07T00:26:37;100846.91;;;3.88;96.26
15750;BME280;7976;52.526;13.326;2022-12-07T00:29:11;100837.47;;;3.82;95.65
15750;BME280;7976;52.526;13.326;2022-12-07T00:31:42;100838.34;;;3.81;95.77
15750;BME280;7976;52.526;13.326;2022-12-07T00:34:14;100834.88;;;3.80;95.87
15750;BME280;7976;52.526;13.326;2022-12-07T00:36:42;100836.66;;;3.80;95.68
15750;BME280;7976;52.526;13.326;2022-12-07T00:39:10;100839.22;;;3.80;95.52
15750;BME280;7976;52.526;13.326;2022-12-07T00:41:37;100832.38;;;3.73;95.25
15750;BME280;7976;52.526;13.326;2022-12-07T00:44:04;100828.97;;;3.68;95.29
15750;BME280;7976;52.526;13.326;2022-12-07T00:46:31;100830.69;;;3.69;94.83
15750;BME280;7976;52.526;13.326;2022-12-07T00:48:58;100828.13;;;3.66;94.75
15750;BME280;7976;52.526;13.326;2022-12-07T00:51:25;100826.41;;;3.63;94.73
15750;BME280;7976;52.526;13.326;2022-12-07T00:53:53;100831.59;;;3.60;94.27
15750;BME280;7976;52.526;13.326;2022-12-07T00:56:26;100829.06;;;3.54;93.96
15750;BME280;7976;52.526;13.326;2022-12-07T00:58:55;100813.56;;;3.53;93.77
15750;BME280;7976;52.526;13.326;2022-12-07T01:01:24;100819.59;;;3.53;93.61
15750;BME280;7976;52.526;13.326;2022-12-07T01:03:54;100826.44;;;3.59;93.72
15750;BME280;7976;52.526;13.326;2022-12-07T01:06:23;100818.66;;;3.63;93.69
15750;BME280;7976;52.526;13.326;2022-12-07T01:08:51;100821.22;;;3.68;93.27
15750;BME280;7976;52.526;13.326;2022-12-07T01:11:25;100822.06;;;3.70;92.99
15750;BME280;7976;52.526;13.326;2022-12-07T01:13:56;100816.03;;;3.69;93.00
15750;BME280;7976;52.526;13.326;2022-12-07T01:16:25;100813.44;;;3.69;92.60
15750;BME280;7976;52.526;13.326;2022-12-07T01:18:54;100804.88;;;3.63;92.41
15750;BME280;7976;52.526;13.326;2022-12-07T01:21:24;100804.91;;;3.57;92.21
15750;BME280;7976;52.526;13.326;2022-12-07T01:23:53;100810.09;;;3.55;92.29
15750;BME280;7976;52.526;13.326;2022-12-07T01:26:24;100805.84;;;3.51;91.87
15750;BME280;7976;52.526;13.326;2022-12-07T01:28:54;100804.09;;;3.49;91.91
15750;BME280;7976;52.526;13.326;2022-12-07T01:31:23;100807.53;;;3.54;91.68
15750;BME280;7976;52.526;13.326;2022-12-07T01:33:54;100803.19;;;3.57;91.79
15750;BME280;7976;52.526;13.326;2022-12-07T01:36:25;100798.84;;;3.61;91.69
15750;BME280;7976;52.526;13.326;2022-12-07T01:38:57;100794.47;;;3.67;91.40
15750;BME280;7976;52.526;13.326;2022-12-07T01:41:30;100789.28;;;3.69;90.89
15750;BME280;7976;52.526;13.326;2022-12-07T01:44:24;100807.41;;;3.67;90.77
15750;BME280;7976;52.526;13.326;2022-12-07T01:46:53;100793.63;;;3.67;90.68
15750;BME280;7976;52.526;13.326;2022-12-07T01:49:29;100793.59;;;3.68;90.61
15750;BME280;7976;52.526;13.326;2022-12-07T01:52:09;100783.25;;;3.68;90.33
15750;BME280;7976;52.526;13.326;2022-12-07T01:54:40;100775.50;;;3.68;90.54
15750;BME280;7976;52.526;13.326;2022-12-07T01:57:13;100772.91;;;3.68;90.01
15750;BME280;7976;52.526;13.326;2022-12-07T01:59:44;100770.34;;;3.67;90.25
15750;BME280;7976;52.526;13.326;2022-12-07T02:02:19;100772.91;;;3.70;90.33
15750;BME280;7976;52.526;13.326;2022-12-07T02:04:47;100765.13;;;3.73;89.84
15750;BME280;7976;52.526;13.326;2022-12-07T02:07:15;100755.59;;;3.73;89.67
15750;BME280;7976;52.526;13.326;2022-12-07T02:09:44;100765.16;;;3.70;89.50
15750;BME280;7976;52.526;13.326;2022-12-07T02:12:12;100763.44;;;3.67;89.50
15750;BME280;7976;52.526;13.326;2022-12-07T02:14:39;100760.84;;;3.67;89.36
15750;BME280;7976;52.526;13.326;2022-12-07T02:17:14;100755.63;;;3.72;89.44
15750;BME280;7976;52.526;13.326;2022-12-07T02:20:17;100753.88;;;3.74;89.48
15750;BME280;7976;52.526;13.326;2022-12-07T02:26:14;100752.19;;;3.71;88.81
15750;BME280;7976;52.526;13.326;2022-12-07T02:29:18;100753.88;;;3.74;89.04
15750;BME280;7976;52.526;13.326;2022-12-07T02:32:00;100750.44;;;3.72;88.82
15750;BME280;7976;52.526;13.326;2022-12-07T02:34:44;100747.91;;;3.69;89.04
15750;BME280;7976;52.526;13.326;2022-12-07T02:37:29;100738.44;;;3.68;89.03
15750;BME280;7976;52.526;13.326;2022-12-07T02:40:09;100734.97;;;3.69;89.04
15750;BME280;7976;52.526;13.326;2022-12-07T02:42:44;100729.81;;;3.67;89.07
15750;BME280;7976;52.526;13.326;2022-12-07T02:45:17;100722.94;;;3.63;88.87
15750;BME280;7976;52.526;13.326;2022-12-07T02:47:51;100716.03;;;3.65;89.33
15750;BME280;7976;52.526;13.326;2022-12-07T02:50:20;100721.16;;;3.68;89.09
15750;BME280;7976;52.526;13.326;2022-12-07T02:52:48;100720.28;;;3.71;88.97
15750;BME280;7976;52.526;13.326;2022-12-07T02:55:21;100712.59;;;3.65;88.98
15750;BME280;7976;52.526;13.326;2022-12-07T02:58:10;100709.16;;;3.64;89.41
15750;BME280;7976;52.526;13.326;2022-12-07T03:00:54;100715.13;;;3.69;89.19
15750;BME280;7976;52.526;13.326;2022-12-07T03:03:27;100720.25;;;3.74;89.52
15750;BME280;7976;52.526;13.326;2022-12-07T03:06:06;100709.91;;;3.74;89.21
15750;BME280;7976;52.526;13.326;2022-12-07T03:08:50;100702.94;;;3.79;89.37
15750;BME280;7976;52.526;13.326;2022-12-07T03:11:29;100688.28;;;3.81;89.46
15750;BME280;7976;52.526;13.326;2022-12-07T03:14:04;100688.28;;;3.81;89.46
15750;BME280;7976;52.526;13.326;2022-12-07T03:16:41;100689.13;;;3.83;89.78
15750;BME280;7976;52.526;13.326;2022-12-07T03:19:14;100677.03;;;3.82;89.36
15750;BME280;7976;52.526;13.326;2022-12-07T03:21:47;100675.34;;;3.81;89.41
15750;BME280;7976;52.526;13.326;2022-12-07T03:24:19;100672.75;;;3.81;89.53
15750;BME280;7976;52.526;13.326;2022-12-07T03:26:52;100669.28;;;3.82;89.83
15750;BME280;7976;52.526;13.326;2022-12-07T03:29:28;100657.16;;;3.85;89.84
15750;BME280;7976;52.526;13.326;2022-12-07T03:32:03;100652.78;;;3.92;89.64
15750;BME280;7976;52.526;13.326;2022-12-07T03:34:36;100649.28;;;3.96;89.60
15750;BME280;7976;52.526;13.326;2022-12-07T03:37:12;100644.06;;;3.99;89.51
15750;BME280;7976;52.526;13.326;2022-12-07T03:39:51;100644.00;;;4.05;89.41
15750;BME280;7976;52.526;13.326;2022-12-07T03:42:21;100635.28;;;4.11;89.90
15750;BME280;7976;52.526;13.326;2022-12-07T03:44:48;100630.13;;;4.09;89.77
15750;BME280;7976;52.526;13.326;2022-12-07T03:47:27;100633.66;;;4.02;89.68
15750;BME280;7976;52.526;13.326;2022-12-07T03:50:01;100615.56;;;4.01;89.68
15750;BME280;7976;52.526;13.326;2022-12-07T03:52:35;100618.28;;;3.93;89.54
15750;BME280;7976;52.526;13.326;2022-12-07T03:55:09;100611.38;;;3.92;89.94
15750;BME280;7976;52.526;13.326;2022-12-07T03:57:40;100606.25;;;3.88;89.98
15750;BME280;7976;52.526;13.326;2022-12-07T04:00:12;100604.66;;;3.77;89.80
15750;BME280;7976;52.526;13.326;2022-12-07T04:02:41;100606.47;;;3.71;90.32
15750;BME280;7976;52.526;13.326;2022-12-07T04:05:09;100606.47;;;3.71;90.59
15750;BME280;7976;52.526;13.326;2022-12-07T04:07:37;100604.75;;;3.71;90.74
15750;BME280;7976;52.526;13.326;2022-12-07T04:10:05;100604.72;;;3.73;91.00
15750;BME280;7976;52.526;13.326;2022-12-07T04:12:32;100596.94;;;3.74;90.96
15750;BME280;7976;52.526;13.326;2022-12-07T04:14:59;100593.50;;;3.72;91.03
15750;BME280;7976;52.526;13.326;2022-12-07T04:17:26;100587.50;;;3.69;91.31
15750;BME280;7976;52.526;13.326;2022-12-07T04:19:54;100589.22;;;3.68;91.31
15750;BME280;7976;52.526;13.326;2022-12-07T04:22:21;100584.13;;;3.64;91.56
15750;BME280;7976;52.526;13.326;2022-12-07T04:24:48;100582.47;;;3.60;91.77
15750;BME280;7976;52.526;13.326;2022-12-07T04:27:14;100585.94;;;3.56;91.99
15750;BME280;7976;52.526;13.326;2022-12-07T04:29:41;100580.75;;;3.59;92.23
15750;BME280;7976;52.526;13.326;2022-12-07T04:32:08;100571.31;;;3.55;92.32
15750;BME280;7976;52.526;13.326;2022-12-07T04:34:35;100573.09;;;3.51;92.75
15750;BME280;7976;52.526;13.326;2022-12-07T04:37:03;100560.19;;;3.47;92.52
15750;BME280;7976;52.526;13.326;2022-12-07T04:39:32;100558.47;;;3.46;92.90
15750;BME280;7976;52.526;13.326;2022-12-07T04:42:00;100553.34;;;3.44;92.79
15750;BME280;7976;52.526;13.326;2022-12-07T04:44:29;100552.44;;;3.45;93.20
15750;BME280;7976;52.526;13.326;2022-12-07T04:46:56;100558.47;;;3.46;93.42
15750;BME280;7976;52.526;13.326;2022-12-07T04:49:24;100558.47;;;3.46;93.69
15750;BME280;7976;52.526;13.326;2022-12-07T04:51:51;100555.81;;;3.52;93.82
15750;BME280;7976;52.526;13.326;2022-12-07T04:54:20;100554.03;;;3.57;94.14
15750;BME280;7976;52.526;13.326;2022-12-07T04:56:47;100561.78;;;3.60;94.22
15750;BME280;7976;52.526;13.326;2022-12-07T04:59:15;100554.00;;;3.61;94.31
15750;BME280;7976;52.526;13.326;2022-12-07T05:01:43;100547.97;;;3.61;94.17
15750;BME280;7976;52.526;13.326;2022-12-07T05:04:10;100549.66;;;3.62;94.41
15750;BME280;7976;52.526;13.326;2022-12-07T05:06:37;100554.81;;;3.65;94.72
15750;BME280;7976;52.526;13.326;2022-12-07T05:09:04;100547.06;;;3.65;94.44
15750;BME280;7976;52.526;13.326;2022-12-07T05:11:33;100546.13;;;3.69;94.84
15750;BME280;7976;52.526;13.326;2022-12-07T05:14:12;100545.25;;;3.68;94.79
15750;BME280;7976;52.526;13.326;2022-12-07T05:16:40;100534.91;;;3.68;95.15
15750;BME280;7976;52.526;13.326;2022-12-07T05:19:08;100542.63;;;3.73;95.26
15750;BME280;7976;52.526;13.326;2022-12-07T05:21:36;100536.56;;;3.74;95.09
15750;BME280;7976;52.526;13.326;2022-12-07T05:24:04;100533.13;;;3.75;95.33
15750;BME280;7976;52.526;13.326;2022-12-07T05:26:34;100524.47;;;3.77;95.55
15750;BME280;7976;52.526;13.326;2022-12-07T05:29:00;100533.09;;;3.78;95.40
15750;BME280;7976;52.526;13.326;2022-12-07T05:31:27;100537.34;;;3.80;95.40
15750;BME280;7976;52.526;13.326;2022-12-07T05:33:55;100529.53;;;3.85;95.95
15750;BME280;7976;52.526;13.326;2022-12-07T05:36:22;100532.94;;;3.87;95.89
15750;BME280;7976;52.526;13.326;2022-12-07T05:38:49;100525.97;;;3.92;95.82
15750;BME280;7976;52.526;13.326;2022-12-07T05:41:18;100522.56;;;3.92;95.92
15750;BME280;7976;52.526;13.326;2022-12-07T05:44:05;100525.16;;;3.90;95.79
15750;BME280;7976;52.526;13.326;2022-12-07T05:46:32;100519.06;;;3.93;96.03
15750;BME280;7976;52.526;13.326;2022-12-07T05:48:59;100519.88;;;3.96;96.30
15750;BME280;7976;52.526;13.326;2022-12-07T05:51:26;100508.63;;;4.00;96.48
15750;BME280;7976;52.526;13.326;2022-12-07T05:53:53;100512.84;;;4.06;96.66
15750;BME280;7976;52.526;13.326;2022-12-07T05:56:20;100506.81;;;4.07;96.44
15750;BME280;7976;52.526;13.326;2022-12-07T05:58:48;100502.47;;;4.07;96.34
15750;BME280;7976;52.526;13.326;2022-12-07T06:01:33;100493.78;;;4.11;96.63
15750;BME280;7976;52.526;13.326;2022-12-07T06:04:00;100486.84;;;4.13;96.45
15750;BME280;7976;52.526;13.326;2022-12-07T06:06:27;100488.53;;;4.16;96.75
15750;BME280;7976;52.526;13.326;2022-12-07T06:08:54;100490.22;;;4.18;96.68
15750;BME280;7976;52.526;13.326;2022-12-07T06:11:21;100491.97;;;4.16;96.63
15750;BME280;7976;52.526;13.326;2022-12-07T06:14:05;100488.50;;;4.17;96.57
15750;BME280;7976;52.526;13.326;2022-12-07T06:16:33;100491.06;;;4.19;96.73
15750;BME280;7976;52.526;13.326;2022-12-07T06:19:00;100485.88;;;4.20;96.58
15750;BME280;7976;52.526;13.326;2022-12-07T06:21:28;100485.03;;;4.20;96.81
15750;BME280;7976;52.526;13.326;2022-12-07T06:23:55;100468.72;;;4.15;96.73
15750;BME280;7976;52.526;13.326;2022-12-07T06:26:22;100471.34;;;4.12;96.72
15750;BME280;7976;52.526;13.326;2022-12-07T06:28:48;100474.81;;;4.09;96.84
15750;BME280;7976;52.526;13.326;2022-12-07T06:31:16;100472.25;;;4.08;96.83
15750;BME280;7976;52.526;13.326;2022-12-07T06:33:44;100478.34;;;4.04;96.79
15750;BME280;7976;52.526;13.326;2022-12-07T06:36:11;100469.78;;;4.02;97.24
15750;BME280;7976;52.526;13.326;2022-12-07T06:38:38;100466.31;;;4.01;97.15
15750;BME280;7976;52.526;13.326;2022-12-07T06:41:05;100477.56;;;4.00;97.38
15750;BME280;7976;52.526;13.326;2022-12-07T06:43:32;100468.94;;;4.00;97.30
15750;BME280;7976;52.526;13.326;2022-12-07T06:45:59;100468.09;;;3.98;97.38
15750;BME280;7976;52.526;13.326;2022-12-07T06:48:26;100480.16;;;4.00;97.62
15750;BME280;7976;52.526;13.326;2022-12-07T06:50:54;100468.97;;;3.98;97.46
15750;BME280;7976;52.526;13.326;2022-12-07T06:53:21;100469.78;;;4.02;97.83
15750;BME280;7976;52.526;13.326;2022-12-07T06:55:48;100469.75;;;4.03;97.83
15750;BME280;7976;52.526;13.326;2022-12-07T06:58:15;100470.59;;;4.05;98.16
15750;BME280;7976;52.526;13.326;2022-12-07T07:00:42;100464.47;;;4.09;98.36
15750;BME280;7976;52.526;13.326;2022-12-07T07:03:10;100471.38;;;4.10;98.29
15750;BME280;7976;52.526;13.326;2022-12-07T07:05:37;100474.78;;;4.12;98.19
15750;BME280;7976;52.526;13.326;2022-12-07T07:08:05;100479.00;;;4.18;98.20
15750;BME280;7976;52.526;13.326;2022-12-07T07:10:32;100472.09;;;4.18;98.47
15750;BME280;7976;52.526;13.326;2022-12-07T07:12:59;100465.16;;;4.19;98.44
15750;BME280;7976;52.526;13.326;2022-12-07T07:15:26;100463.38;;;4.22;98.42
15750;BME280;7976;52.526;13.326;2022-12-07T07:17:53;100471.97;;;4.26;98.58
15750;BME280;7976;52.526;13.326;2022-12-07T07:20:20;100473.69;;;4.27;98.54
15750;BME280;7976;52.526;13.326;2022-12-07T07:22:48;100477.97;;;4.29;98.43
15750;BME280;7976;52.526;13.326;2022-12-07T07:25:16;100483.09;;;4.31;98.56
15750;BME280;7976;52.526;13.326;2022-12-07T07:27:44;100483.94;;;4.33;98.76
15750;BME280;7976;52.526;13.326;2022-12-07T07:30:12;100473.47;;;4.39;98.67
15750;BME280;7976;52.526;13.326;2022-12-07T07:32:39;100482.09;;;4.39;98.58
15750;BME280;7976;52.526;13.326;2022-12-07T07:35:06;100469.22;;;4.36;98.47
15750;BME280;7976;52.526;13.326;2022-12-07T07:37:34;100455.44;;;4.34;98.71
15750;BME280;7976;52.526;13.326;2022-12-07T07:40:01;100472.78;;;4.29;98.54
15750;BME280;7976;52.526;13.326;2022-12-07T07:42:29;100467.66;;;4.26;98.53
15750;BME280;7976;52.526;13.326;2022-12-07T07:44:56;100471.97;;;4.26;98.54
15750;BME280;7976;52.526;13.326;2022-12-07T07:47:22;100473.66;;;4.28;98.68
15750;BME280;7976;52.526;13.326;2022-12-07T07:49:50;100470.16;;;4.31;98.48
15750;BME280;7976;52.526;13.326;2022-12-07T07:52:17;100472.69;;;4.34;98.72
15750;BME280;7976;52.526;13.326;2022-12-07T07:54:43;100466.66;;;4.35;98.66
15750;BME280;7976;52.526;13.326;2022-12-07T07:57:10;100483.06;;;4.35;98.46
15750;BME280;7976;52.526;13.326;2022-12-07T07:59:38;100473.53;;;4.36;98.41
15750;BME280;7976;52.526;13.326;2022-12-07T08:02:05;100483.03;;;4.34;98.55
15750;BME280;7976;52.526;13.326;2022-12-07T08:04:32;100485.63;;;4.34;98.46
15750;BME280;7976;52.526;13.326;2022-12-07T08:06:59;100488.19;;;4.38;98.39
15750;BME280;7976;52.526;13.326;2022-12-07T08:09:25;100490.66;;;4.44;98.49
15750;BME280;7976;52.526;13.326;2022-12-07T08:11:52;100481.13;;;4.46;98.12
15750;BME280;7976;52.526;13.326;2022-12-07T08:14:19;100487.97;;;4.49;97.93
15750;BME280;7976;52.526;13.326;2022-12-07T08:16:47;100481.88;;;4.53;98.12
15750;BME280;7976;52.526;13.326;2022-12-07T08:19:14;100479.19;;;4.57;98.08
15750;BME280;7976;52.526;13.326;2022-12-07T08:21:41;100485.16;;;4.62;97.84
15750;BME280;7976;52.526;13.326;2022-12-07T08:24:08;100481.66;;;4.65;97.80
15750;BME280;7976;52.526;13.326;2022-12-07T08:26:34;100484.16;;;4.69;97.56
15750;BME280;7976;52.526;13.326;2022-12-07T08:29:01;100484.09;;;4.72;97.57
15750;BME280;7976;52.526;13.326;2022-12-07T08:31:28;100493.63;;;4.73;97.36
15750;BME280;7976;52.526;13.326;2022-12-07T08:33:57;100497.97;;;4.71;97.27
15750;BME280;7976;52.526;13.326;2022-12-07T08:36:24;100492.84;;;4.68;97.18
15750;BME280;7976;52.526;13.326;2022-12-07T08:38:51;100484.19;;;4.68;97.19
15750;BME280;7976;52.526;13.326;2022-12-07T08:41:17;100498.91;;;4.66;96.99
15750;BME280;7976;52.526;13.326;2022-12-07T08:43:44;100497.19;;;4.66;96.68
15750;BME280;7976;52.526;13.326;2022-12-07T08:46:16;100514.47;;;4.66;96.06
15750;BME280;7976;52.526;13.326;2022-12-07T08:48:50;100504.06;;;4.67;96.11
15750;BME280;7976;52.526;13.326;2022-12-07T08:51:21;100496.19;;;4.73;95.57
15750;BME280;7976;52.526;13.326;2022-12-07T08:53:50;100503.97;;;4.73;95.03
15750;BME280;7976;52.526;13.326;2022-12-07T08:56:18;100508.28;;;4.73;94.43
15750;BME280;7976;52.526;13.326;2022-12-07T08:58:47;100510.03;;;4.72;93.86
15750;BME280;7976;52.526;13.326;2022-12-07T09:01:14;100521.25;;;4.73;93.02
15750;BME280;7976;52.526;13.326;2022-12-07T09:03:41;100516.94;;;4.73;92.32
15750;BME280;7976;52.526;13.326;2022-12-07T09:06:08;100520.38;;;4.72;91.76
15750;BME280;7976;52.526;13.326;2022-12-07T09:08:41;100522.09;;;4.75;91.14
15750;BME280;7976;52.526;13.326;2022-12-07T09:11:10;100530.66;;;4.78;90.53
15750;BME280;7976;52.526;13.326;2022-12-07T09:13:37;100529.81;;;4.76;89.99
15750;BME280;7976;52.526;13.326;2022-12-07T09:16:05;100535.91;;;4.75;89.44
15750;BME280;7976;52.526;13.326;2022-12-07T09:18:32;100524.75;;;4.72;88.64
15750;BME280;7976;52.526;13.326;2022-12-07T09:20:59;100536.91;;;4.67;88.24
15750;BME280;7976;52.526;13.326;2022-12-07T09:23:25;100533.53;;;4.62;87.75
15750;BME280;7976;52.526;13.326;2022-12-07T09:25:54;100529.16;;;4.64;87.42
15750;BME280;7976;52.526;13.326;2022-12-07T09:28:20;100527.50;;;4.61;87.05
15750;BME280;7976;52.526;13.326;2022-12-07T09:30:48;100531.75;;;4.65;86.91
15750;BME280;7976;52.526;13.326;2022-12-07T09:33:15;100542.97;;;4.66;86.28
15750;BME280;7976;52.526;13.326;2022-12-07T09:35:44;100539.53;;;4.65;86.25
15750;BME280;7976;52.526;13.326;2022-12-07T09:38:12;100546.41;;;4.66;85.96
15750;BME280;7976;52.526;13.326;2022-12-07T09:40:40;100552.47;;;4.67;85.93
15750;BME280;7976;52.526;13.326;2022-12-07T09:43:15;100547.31;;;4.65;85.86
15750;BME280;7976;52.526;13.326;2022-12-07T09:45:45;100551.59;;;4.66;85.72
15750;BME280;7976;52.526;13.326;2022-12-07T09:48:18;100553.25;;;4.69;85.58
15750;BME280;7976;52.526;13.326;2022-12-07T09:50:48;100561.97;;;4.66;85.15
15750;BME280;7976;52.526;13.326;2022-12-07T09:53:20;100556.88;;;4.60;84.67
15750;BME280;7976;52.526;13.326;2022-12-07T09:55:49;100556.88;;;4.59;83.91
15750;BME280;7976;52.526;13.326;2022-12-07T09:58:23;100552.59;;;4.58;83.36
15750;BME280;7976;52.526;13.326;2022-12-07T10:00:53;100560.44;;;4.53;83.22
15750;BME280;7976;52.526;13.326;2022-12-07T10:03:23;100554.41;;;4.53;82.96
15750;BME280;7976;52.526;13.326;2022-12-07T10:05:51;100563.06;;;4.52;83.20
15750;BME280;7976;52.526;13.326;2022-12-07T10:08:19;100559.63;;;4.51;83.00
15750;BME280;7976;52.526;13.326;2022-12-07T10:10:52;100556.91;;;4.57;83.22
15750;BME280;7976;52.526;13.326;2022-12-07T10:13:23;100560.25;;;4.65;83.29
15750;BME280;7976;52.526;13.326;2022-12-07T10:16:00;100555.06;;;4.65;83.16
15750;BME280;7976;52.526;13.326;2022-12-07T10:18:30;100554.25;;;4.63;83.23
15750;BME280;7976;52.526;13.326;2022-12-07T10:21:11;100564.59;;;4.63;83.17
15750;BME280;7976;52.526;13.326;2022-12-07T10:23:40;100567.19;;;4.63;83.11
15750;BME280;7976;52.526;13.326;2022-12-07T10:26:29;100556.91;;;4.57;82.82
15750;BME280;7976;52.526;13.326;2022-12-07T10:28:59;100567.41;;;4.50;83.06
15750;BME280;7976;52.526;13.326;2022-12-07T10:31:27;100552.84;;;4.43;83.16
15750;BME280;7976;52.526;13.326;2022-12-07T10:33:57;100561.53;;;4.37;83.34
15750;BME280;7976;52.526;13.326;2022-12-07T10:36:27;100560.69;;;4.38;83.55
15750;BME280;7976;52.526;13.326;2022-12-07T10:39:03;100558.94;;;4.40;83.55
15750;BME280;7976;52.526;13.326;2022-12-07T10:41:31;100557.97;;;4.46;83.71
15750;BME280;7976;52.526;13.326;2022-12-07T10:43:59;100559.53;;;4.56;83.77
15750;BME280;7976;52.526;13.326;2022-12-07T10:47:01;100555.13;;;4.61;83.52
15750;BME280;7976;52.526;13.326;2022-12-07T10:50:10;100555.97;;;4.63;83.53
15750;BME280;7976;52.526;13.326;2022-12-07T10:56:07;100545.50;;;4.70;83.35
15750;BME280;7976;52.526;13.326;2022-12-07T10:59:01;100554.91;;;4.74;83.52
15750;BME280;7976;52.526;13.326;2022-12-07T11:01:42;100541.00;;;4.80;83.60
15750;BME280;7976;52.526;13.326;2022-12-07T11:04:24;100546.00;;;4.90;83.61
15750;BME280;7976;52.526;13.326;2022-12-07T11:07:02;100543.25;;;4.98;83.67
15750;BME280;7976;52.526;13.326;2022-12-07T11:09:54;100542.38;;;4.99;83.34
15750;BME280;7976;52.526;13.326;2022-12-07T11:12:40;100546.78;;;4.94;83.43
15750;BME280;7976;52.526;13.326;2022-12-07T11:15:19;100543.34;;;4.93;83.87
15750;BME280;7976;52.526;13.326;2022-12-07T11:17:57;100546.78;;;4.95;83.76
15750;BME280;7976;52.526;13.326;2022-12-07T11:20:41;100540.69;;;4.98;83.73
15750;BME280;7976;52.526;13.326;2022-12-07T11:23:22;100538.97;;;4.97;83.68
15750;BME280;7976;52.526;13.326;2022-12-07T11:25:59;100531.13;;;5.00;83.49
15750;BME280;7976;52.526;13.326;2022-12-07T11:28:53;100526.78;;;5.02;83.59
15750;BME280;7976;52.526;13.326;2022-12-07T11:31:32;100524.22;;;5.00;83.54
15750;BME280;7976;52.526;13.326;2022-12-07T11:34:10;100526.69;;;5.06;83.58
15750;BME280;7976;52.526;13.326;2022-12-07T11:36:44;100518.94;;;5.05;83.60
15750;BME280;7976;52.526;13.326;2022-12-07T11:39:30;100518.00;;;5.07;83.80
15750;BME280;7976;52.526;13.326;2022-12-07T11:42:06;100517.03;;;5.14;83.71
15750;BME280;7976;52.526;13.326;2022-12-07T11:44:53;100512.66;;;5.17;83.45
15750;BME280;7976;52.526;13.326;2022-12-07T11:47:32;100514.44;;;5.14;83.52
15750;BME280;7976;52.526;13.326;2022-12-07T11:50:17;100516.19;;;5.12;83.28
15750;BME280;7976;52.526;13.326;2022-12-07T11:52:53;100518.00;;;5.10;83.64
15750;BME280;7976;52.526;13.326;2022-12-07T11:55:29;100513.59;;;5.12;84.10
15750;BME280;7976;52.526;13.326;2022-12-07T11:58:04;100506.53;;;5.22;83.78
15750;BME280;7976;52.526;13.326;2022-12-07T12:00:33;100512.44;;;5.29;83.61
15750;BME280;7976;52.526;13.326;2022-12-07T12:03:10;100513.25;;;5.32;83.57
15750;BME280;7976;52.526;13.326;2022-12-07T12:05:39;100510.53;;;5.37;83.67
15750;BME280;7976;52.526;13.326;2022-12-07T12:08:14;100511.31;;;5.42;83.55
15750;BME280;7976;52.526;13.326;2022-12-07T12:10:55;100506.94;;;5.44;83.48
15750;BME280;7976;52.526;13.326;2022-12-07T12:13:52;100496.50;;;5.47;83.25
15750;BME280;7976;52.526;13.326;2022-12-07T12:17:00;100496.56;;;5.44;83.45
15750;BME280;7976;52.526;13.326;2022-12-07T12:19:34;100496.56;;;5.44;83.29
15750;BME280;7976;52.526;13.326;2022-12-07T12:22:13;100501.75;;;5.44;83.46
15750;BME280;7976;52.526;13.326;2022-12-07T12:24:44;100493.06;;;5.45;83.39
15750;BME280;7976;52.526;13.326;2022-12-07T12:27:27;100496.50;;;5.47;83.46
15750;BME280;7976;52.526;13.326;2022-12-07T12:30:01;100487.09;;;5.41;83.16
15750;BME280;7976;52.526;13.326;2022-12-07T12:32:39;100494.09;;;5.39;83.32
15750;BME280;7976;52.526;13.326;2022-12-07T12:35:30;100489.66;;;5.43;83.17
15750;BME280;7976;52.526;13.326;2022-12-07T12:38:27;100488.81;;;5.42;82.89
15750;BME280;7976;52.526;13.326;2022-12-07T12:40:56;100499.19;;;5.42;83.17
15750;BME280;7976;52.526;13.326;2022-12-07T12:43:49;100490.69;;;5.36;82.82
15750;BME280;7976;52.526;13.326;2022-12-07T12:46:58;100490.72;;;5.33;82.98
15750;BME280;7976;52.526;13.326;2022-12-07T12:49:39;100487.28;;;5.34;83.01
15750;BME280;7976;52.526;13.326;2022-12-07T12:52:52;100484.75;;;5.31;82.99
15750;BME280;7976;52.526;13.326;2022-12-07T12:56:16;100480.56;;;5.24;82.95
15750;BME280;7976;52.526;13.326;2022-12-07T12:58:48;100475.41;;;5.22;83.28
15750;BME280;7976;52.526;13.326;2022-12-07T13:01:46;100489.97;;;5.28;83.11
15750;BME280;7976;52.526;13.326;2022-12-07T13:04:59;100483.84;;;5.32;83.23
15750;BME280;7976;52.526;13.326;2022-12-07T13:08:00;100494.09;;;5.38;83.17
15750;BME280;7976;52.526;13.326;2022-12-07T13:10:43;100484.53;;;5.40;82.85
15750;BME280;7976;52.526;13.326;2022-12-07T13:13:34;100471.56;;;5.40;82.96
15750;BME280;7976;52.526;13.326;2022-12-07T13:16:40;100484.50;;;5.41;83.17
15750;BME280;7976;52.526;13.326;2022-12-07T13:19:56;100481.91;;;5.41;83.08
15750;BME280;7976;52.526;13.326;2022-12-07T13:22:50;100476.69;;;5.43;83.26
15750;BME280;7976;52.526;13.326;2022-12-07T13:25:30;100480.09;;;5.45;83.09
15750;BME280;7976;52.526;13.326;2022-12-07T13:28:06;100476.69;;;5.44;83.12
15750;BME280;7976;52.526;13.326;2022-12-07T13:30:46;100477.41;;;5.51;83.24
15750;BME280;7976;52.526;13.326;2022-12-07T13:33:14;100478.13;;;5.57;83.00
15750;BME280;7976;52.526;13.326;2022-12-07T13:35:42;100470.22;;;5.62;83.02
15750;BME280;7976;52.526;13.326;2022-12-07T13:38:25;100474.59;;;5.60;83.05